createdAt,value
2018-11-02T00:00:24.164Z,47.87
2018-11-02T00:02:53.385Z,45.10
2018-11-02T00:05:22.507Z,42.20
2018-11-02T00:08:07.305Z,43.33
2018-11-02T00:10:51.310Z,43.47
2018-11-02T00:13:20.604Z,45.27
2018-11-02T00:15:49.664Z,42.07
2018-11-02T00:18:18.795Z,41.50
2018-11-02T00:20:48.030Z,46.83
2018-11-02T00:23:17.156Z,47.20
2018-11-02T00:25:46.343Z,42.27
2018-11-02T00:28:15.460Z,42.20
2018-11-02T00:30:44.524Z,46.67
2018-11-02T00:33:13.787Z,45.60
2018-11-02T00:35:43.049Z,41.80
2018-11-02T00:38:12.188Z,45.40
2018-11-02T00:40:41.300Z,46.17
2018-11-02T00:43:10.541Z,44.83
2018-11-02T00:45:39.609Z,50.07
2018-11-02T00:48:08.808Z,43.23
2018-11-02T00:50:37.950Z,47.20
2018-11-02T00:53:07.471Z,36.93
2018-11-02T00:55:36.531Z,40.77
2018-11-02T00:58:06.000Z,40.73
2018-11-02T01:00:35.082Z,41.57
2018-11-02T01:03:04.238Z,45.93
2018-11-02T01:05:33.369Z,40.10
2018-11-02T01:08:02.528Z,45.10
2018-11-02T01:10:31.574Z,39.77
2018-11-02T01:13:00.654Z,46.70
2018-11-02T01:15:29.739Z,42.43
2018-11-02T01:17:59.075Z,45.93
2018-11-02T01:20:28.143Z,40.70
2018-11-02T01:22:57.259Z,41.27
2018-11-02T01:25:26.329Z,40.83
2018-11-02T01:27:55.437Z,43.20
2018-11-02T01:30:24.533Z,43.87
2018-11-02T01:32:53.613Z,44.27
2018-11-02T01:35:22.687Z,40.33
2018-11-02T01:37:51.823Z,44.07
2018-11-02T01:40:20.901Z,41.47
2018-11-02T01:42:50.111Z,40.40
2018-11-02T01:45:19.209Z,46.57
2018-11-02T01:47:48.617Z,45.57
2018-11-02T01:50:17.858Z,45.70
2018-11-02T01:52:46.962Z,43.97
2018-11-02T01:55:16.054Z,35.33
2018-11-02T01:57:45.171Z,42.17
2018-11-02T02:00:14.283Z,44.10
2018-11-02T02:02:43.389Z,38.93
2018-11-02T02:05:12.487Z,36.07
2018-11-02T02:07:41.587Z,48.27
2018-11-02T02:10:10.692Z,44.50
2018-11-02T02:12:39.960Z,41.63
2018-11-02T02:15:09.758Z,35.97
2018-11-02T02:17:38.880Z,48.33
2018-11-02T02:20:08.455Z,47.87
2018-11-02T02:22:37.578Z,42.13
2018-11-02T02:25:07.061Z,47.23
2018-11-02T02:27:37.806Z,42.57
2018-11-02T02:30:09.960Z,45.93
2018-11-02T02:32:39.188Z,53.37
2018-11-02T02:35:09.214Z,41.73
2018-11-02T02:37:39.730Z,37.03
2018-11-02T02:40:10.850Z,47.17
2018-11-02T02:42:40.801Z,43.40
2018-11-02T02:45:11.018Z,43.23
2018-11-02T02:47:40.520Z,44.93
2018-11-02T02:50:12.150Z,48.13
2018-11-02T02:52:41.976Z,43.03
2018-11-02T02:55:11.097Z,43.33
2018-11-02T02:57:40.380Z,39.83
2018-11-02T03:00:11.924Z,40.40
2018-11-02T03:02:41.230Z,42.73
2018-11-02T03:05:10.929Z,44.60
2018-11-02T03:07:40.869Z,45.60
2018-11-02T03:10:10.515Z,39.20
2018-11-02T03:12:39.977Z,43.33
2018-11-02T03:15:09.348Z,43.70
2018-11-02T03:17:38.783Z,40.63
2018-11-02T03:20:09.083Z,44.47
2018-11-02T03:22:38.393Z,43.17
2018-11-02T03:25:08.639Z,43.53
2018-11-02T03:27:37.766Z,45.53
2018-11-02T03:30:07.986Z,41.57
2018-11-02T03:32:37.362Z,40.50
2018-11-02T03:35:06.469Z,46.23
2018-11-02T03:37:35.562Z,44.93
2018-11-02T03:40:05.005Z,43.40
2018-11-02T03:42:34.374Z,43.70
2018-11-02T03:45:03.455Z,45.83
2018-11-02T03:47:32.725Z,46.17
2018-11-02T03:50:01.773Z,41.97
2018-11-02T03:52:30.901Z,42.03
2018-11-02T03:54:59.974Z,47.87
2018-11-02T03:57:29.048Z,44.07
2018-11-02T03:59:58.741Z,44.50
2018-11-02T04:02:28.112Z,39.80
2018-11-02T04:04:57.212Z,47.03
2018-11-02T04:07:26.350Z,40.43
2018-11-02T04:09:55.434Z,39.40
2018-11-02T04:12:24.528Z,41.33
2018-11-02T04:14:53.618Z,41.90
2018-11-02T04:17:22.905Z,41.17
2018-11-02T04:19:52.032Z,40.77
2018-11-02T04:22:21.117Z,45.90
2018-11-02T04:24:50.218Z,44.33
2018-11-02T04:27:19.706Z,46.90
2018-11-02T04:29:49.008Z,46.07
2018-11-02T04:32:18.508Z,39.33
2018-11-02T04:34:47.577Z,42.83
2018-11-02T04:37:16.658Z,42.23
2018-11-02T04:39:45.740Z,46.10
2018-11-02T04:42:14.846Z,45.33
2018-11-02T04:44:43.924Z,44.10
2018-11-02T04:47:13.062Z,47.50
2018-11-02T04:49:42.150Z,43.83
2018-11-02T04:52:11.274Z,46.83
2018-11-02T04:54:40.382Z,42.17
2018-11-02T04:57:09.461Z,47.67
2018-11-02T04:59:38.609Z,46.73
2018-11-02T05:02:07.958Z,41.93
2018-11-02T05:04:37.053Z,45.67
2018-11-02T05:07:06.131Z,45.10
2018-11-02T05:09:35.226Z,44.47
2018-11-02T05:14:37.489Z,42.37
2018-11-02T05:17:06.561Z,43.47
2018-11-02T05:19:35.937Z,45.37
2018-11-02T05:22:05.395Z,42.37
2018-11-02T05:24:34.481Z,49.97
2018-11-02T05:27:03.681Z,46.60
2018-11-02T05:29:32.804Z,44.30
2018-11-02T05:32:01.885Z,40.97
2018-11-02T05:34:30.961Z,42.83
2018-11-02T05:37:00.153Z,43.17
2018-11-02T05:39:29.351Z,41.20
2018-11-02T05:41:58.527Z,44.27
2018-11-02T05:44:27.621Z,41.77
2018-11-02T05:46:56.753Z,48.47
2018-11-02T05:49:25.854Z,40.17
2018-11-02T05:51:54.933Z,45.17
2018-11-02T05:54:24.360Z,44.87
2018-11-02T05:56:53.473Z,47.80
2018-11-02T05:59:22.607Z,43.47
2018-11-02T06:01:51.727Z,42.83
2018-11-02T06:04:20.858Z,43.83
2018-11-02T06:06:49.963Z,48.17
2018-11-02T06:09:19.108Z,41.97
2018-11-02T06:11:48.226Z,46.23
2018-11-02T06:14:17.333Z,45.87
2018-11-02T06:16:46.570Z,45.97
2018-11-02T06:19:16.615Z,41.97
2018-11-02T06:21:45.886Z,43.93
2018-11-02T06:24:15.261Z,47.53
2018-11-02T06:26:44.320Z,45.73
2018-11-02T06:29:13.376Z,47.43
2018-11-02T06:31:42.488Z,50.23
2018-11-02T06:34:11.887Z,44.30
2018-11-02T06:36:40.997Z,49.27
2018-11-02T06:39:10.935Z,45.63
2018-11-02T06:41:40.039Z,40.87
2018-11-02T06:44:09.144Z,43.83
2018-11-02T06:46:38.259Z,43.50
2018-11-02T06:49:07.488Z,44.77
2018-11-02T06:51:36.566Z,46.57
2018-11-02T06:54:06.093Z,47.20
2018-11-02T06:56:35.257Z,45.17
2018-11-02T06:59:04.593Z,45.37
2018-11-02T07:01:33.751Z,43.47
2018-11-02T07:04:03.069Z,46.87
2018-11-02T07:06:32.697Z,43.83
2018-11-02T07:09:02.188Z,44.23
2018-11-02T07:11:31.331Z,47.00
2018-11-02T07:14:00.711Z,45.03
2018-11-02T07:16:29.768Z,42.00
2018-11-02T07:18:58.893Z,46.97
2018-11-02T07:21:28.358Z,41.20
2018-11-02T07:23:57.735Z,44.07
2018-11-02T07:26:26.897Z,44.27
2018-11-02T07:28:56.179Z,41.20
2018-11-02T07:31:25.449Z,47.17
2018-11-02T07:33:55.025Z,44.13
2018-11-02T07:36:24.497Z,45.80
2018-11-02T07:39:10.580Z,42.57
2018-11-02T07:41:45.602Z,44.47
2018-11-02T07:44:14.706Z,41.50
2018-11-02T07:46:44.047Z,48.07
2018-11-02T07:49:13.271Z,43.03
2018-11-02T07:51:42.581Z,46.53
2018-11-02T07:54:12.424Z,51.93
2018-11-02T07:56:41.698Z,46.67
2018-11-02T07:59:11.971Z,43.00
2018-11-02T08:01:41.556Z,44.20
2018-11-02T08:04:11.129Z,44.93
2018-11-02T08:06:40.652Z,41.50
2018-11-02T08:09:12.017Z,40.73
2018-11-02T08:11:41.572Z,50.40
2018-11-02T08:14:11.253Z,48.67
2018-11-02T08:16:40.752Z,40.40
2018-11-02T08:19:10.178Z,46.73
2018-11-02T08:21:39.422Z,42.00
2018-11-02T08:24:08.695Z,44.80
2018-11-02T08:26:37.945Z,45.87
2018-11-02T08:29:07.542Z,42.40
2018-11-02T08:31:36.928Z,44.30
2018-11-02T08:34:06.372Z,44.77
2018-11-02T08:36:35.616Z,38.17
2018-11-02T08:39:07.166Z,48.63
2018-11-02T08:41:36.617Z,38.30
2018-11-02T08:44:06.524Z,41.42
2018-11-02T08:47:42.832Z,40.70
2018-11-02T08:50:44.042Z,41.73
2018-11-02T08:53:13.515Z,33.80
2018-11-02T08:55:42.835Z,43.20
2018-11-02T08:58:12.256Z,37.23
2018-11-02T09:00:41.508Z,38.13
2018-11-02T09:03:11.715Z,40.13
2018-11-02T09:05:41.031Z,34.97
2018-11-02T09:08:10.232Z,41.27
2018-11-02T09:10:39.544Z,41.33
2018-11-02T09:13:08.838Z,41.43
2018-11-02T09:15:38.186Z,37.20
2018-11-02T09:18:07.292Z,39.57
2018-11-02T09:20:36.688Z,41.33
2018-11-02T09:23:06.140Z,40.70
2018-11-02T09:25:35.490Z,50.03
2018-11-02T09:28:04.743Z,37.87
2018-11-02T09:30:33.724Z,37.93
2018-11-02T09:33:02.924Z,35.90
2018-11-02T09:35:32.277Z,38.03
2018-11-02T09:38:01.354Z,38.93
2018-11-02T09:40:30.807Z,37.57
2018-11-02T09:42:59.785Z,36.17
2018-11-02T09:45:29.001Z,35.03
2018-11-02T09:47:58.089Z,30.83
2018-11-02T09:50:27.190Z,35.33
2018-11-02T09:52:56.409Z,32.43
2018-11-02T09:55:25.479Z,38.43
2018-11-02T09:57:54.612Z,31.00
2018-11-02T10:00:23.923Z,33.20
2018-11-02T10:02:53.126Z,36.47
2018-11-02T10:05:22.268Z,34.17
2018-11-02T10:07:51.494Z,33.57
2018-11-02T10:10:20.601Z,29.83
2018-11-02T10:12:49.712Z,37.00
2018-11-02T10:15:18.857Z,30.97
2018-11-02T10:17:47.982Z,36.40
2018-11-02T10:20:17.335Z,35.47
2018-11-02T10:22:46.398Z,38.90
2018-11-02T10:25:15.568Z,36.23
2018-11-02T10:27:44.703Z,33.57
2018-11-02T10:30:14.654Z,35.17
2018-11-02T10:32:45.417Z,37.13
2018-11-02T10:35:14.975Z,38.33
2018-11-02T10:37:44.230Z,30.90
2018-11-02T10:40:15.404Z,36.00
2018-11-02T10:42:48.101Z,34.67
2018-11-02T10:45:17.504Z,33.40
2018-11-02T10:47:47.502Z,31.93
2018-11-02T10:50:16.804Z,40.75
2018-11-02T10:52:45.884Z,32.90
2018-11-02T10:55:15.041Z,33.07
2018-11-02T10:57:44.108Z,33.87
2018-11-02T11:00:18.767Z,33.37
2018-11-02T11:02:48.002Z,29.23
2018-11-02T11:05:17.878Z,30.93
2018-11-02T11:07:47.027Z,31.57
2018-11-02T11:10:16.167Z,29.77
2018-11-02T11:12:45.508Z,33.40
2018-11-02T11:15:14.618Z,37.00
2018-11-02T11:17:43.699Z,35.60
2018-11-02T11:20:14.443Z,31.93
2018-11-02T11:22:43.662Z,35.23
2018-11-02T11:25:14.379Z,36.30
2018-11-02T11:27:43.448Z,34.43
2018-11-02T11:30:15.724Z,30.77
2018-11-02T11:32:45.428Z,38.97
2018-11-02T11:35:16.203Z,35.53
2018-11-02T11:37:45.668Z,36.80
2018-11-02T11:40:16.591Z,34.07
2018-11-02T11:42:45.689Z,32.67
2018-11-02T11:45:16.584Z,34.07
2018-11-02T11:47:45.945Z,33.13
2018-11-02T11:50:24.273Z,32.27
2018-11-02T11:52:54.307Z,30.37
2018-11-02T11:55:23.564Z,33.83
2018-11-02T11:57:53.367Z,38.13
2018-11-02T12:00:23.789Z,32.07
2018-11-02T12:02:53.517Z,34.20
2018-11-02T12:05:23.887Z,34.30
2018-11-02T12:07:53.033Z,32.33
2018-11-02T12:10:24.394Z,26.63
2018-11-02T12:12:53.788Z,36.83
2018-11-02T12:15:23.739Z,29.60
2018-11-02T12:17:52.885Z,33.43
2018-11-02T12:20:25.197Z,31.90
2018-11-02T12:22:56.076Z,32.48
2018-11-02T12:25:25.183Z,32.03
2018-11-02T12:27:54.865Z,25.88
2018-11-02T12:30:23.962Z,33.65
2018-11-02T12:32:53.015Z,30.15
2018-11-02T12:35:22.456Z,32.10
2018-11-02T12:37:51.586Z,25.65
2018-11-02T12:40:21.884Z,28.62
2018-11-02T12:42:51.995Z,28.00
2018-11-02T12:45:21.926Z,27.77
2018-11-02T12:47:51.238Z,31.23
2018-11-02T12:50:23.014Z,30.95
2018-11-02T12:52:53.256Z,28.23
2018-11-02T12:55:22.886Z,24.32
2018-11-02T12:57:52.213Z,30.23
2018-11-02T13:00:42.332Z,29.45
2018-11-02T13:03:11.381Z,35.85
2018-11-02T13:05:40.502Z,27.25
2018-11-02T13:08:09.664Z,29.65
2018-11-02T13:10:38.768Z,26.70
2018-11-02T13:13:07.880Z,33.57
2018-11-02T13:15:37.048Z,29.53
2018-11-02T13:18:06.507Z,32.77
2018-11-02T13:20:35.873Z,26.97
2018-11-02T13:23:05.308Z,25.07
2018-11-02T13:25:34.517Z,32.53
2018-11-02T13:28:03.524Z,27.00
2018-11-02T13:30:32.848Z,32.70
2018-11-02T13:33:01.769Z,28.67
2018-11-02T13:35:30.894Z,27.87
2018-11-02T13:37:59.938Z,35.97
2018-11-02T13:40:29.243Z,32.17
2018-11-02T13:42:58.483Z,32.83
2018-11-02T13:45:27.667Z,34.10
2018-11-02T13:47:56.845Z,29.37
2018-11-02T13:50:26.231Z,27.10
2018-11-02T13:52:55.430Z,33.60
2018-11-02T13:55:24.605Z,28.10
2018-11-02T13:57:53.819Z,32.27
2018-11-02T14:00:23.148Z,32.37
2018-11-02T14:02:52.320Z,29.60
2018-11-02T14:05:21.522Z,31.33
2018-11-02T14:07:50.597Z,32.03
2018-11-02T14:10:19.690Z,33.33
2018-11-02T14:12:48.793Z,26.43
2018-11-02T14:15:17.866Z,33.10
2018-11-02T14:17:46.937Z,30.30
2018-11-02T14:20:16.315Z,36.70
2018-11-02T14:22:45.513Z,33.47
2018-11-02T14:25:15.846Z,31.53
2018-11-02T14:27:45.315Z,28.43
2018-11-02T14:30:15.769Z,26.63
2018-11-02T14:32:45.669Z,28.57
2018-11-02T14:35:14.825Z,37.03
2018-11-02T14:37:43.912Z,31.83
2018-11-02T14:40:13.102Z,31.43
2018-11-02T14:42:42.667Z,28.70
2018-11-02T14:45:13.875Z,29.57
2018-11-02T14:47:43.338Z,27.87
2018-11-02T14:50:13.443Z,32.17
2018-11-02T14:52:42.560Z,27.50
2018-11-02T14:55:11.689Z,31.77
2018-11-02T14:57:40.832Z,35.07
2018-11-02T15:00:11.369Z,51.60
2018-11-02T15:02:41.276Z,61.47
2018-11-02T15:05:12.220Z,69.77
2018-11-02T15:07:41.915Z,79.10
2018-11-02T15:10:11.109Z,81.07
2018-11-02T15:12:40.526Z,96.97
2018-11-02T15:15:10.162Z,80.07
2018-11-02T15:17:39.626Z,74.77
2018-11-02T15:20:13.778Z,78.27
2018-11-02T15:22:43.011Z,73.10
2018-11-02T15:25:12.260Z,71.77
2018-11-02T15:27:41.367Z,74.73
2018-11-02T15:30:12.391Z,76.27
2018-11-02T15:32:42.470Z,72.50
2018-11-02T15:35:12.440Z,69.17
2018-11-02T15:37:41.955Z,79.13
2018-11-02T15:42:44.741Z,73.87
2018-11-02T15:45:15.144Z,83.60
2018-11-02T15:47:45.192Z,70.00
2018-11-02T15:50:14.392Z,56.23
2018-11-02T15:52:43.562Z,51.80
2018-11-02T15:55:12.920Z,58.17
2018-11-02T15:57:42.263Z,77.27
2018-11-02T16:00:16.716Z,64.43
2018-11-02T16:02:47.031Z,53.10
2018-11-02T16:05:16.164Z,51.80
2018-11-02T16:07:45.425Z,57.47
2018-11-02T16:10:14.485Z,54.67
2018-11-02T16:12:44.952Z,51.33
2018-11-02T16:15:14.077Z,61.70
2018-11-02T16:17:43.441Z,68.07
2018-11-02T16:20:14.025Z,56.23
2018-11-02T16:22:43.901Z,59.93
2018-11-02T16:25:13.577Z,60.37
2018-11-02T16:27:43.093Z,65.43
2018-11-02T16:30:12.752Z,56.60
2018-11-02T16:32:41.817Z,64.60
2018-11-02T16:35:11.598Z,63.47
2018-11-02T16:37:40.865Z,72.17
2018-11-02T16:40:12.715Z,73.47
2018-11-02T16:42:42.293Z,85.23
2018-11-02T16:45:12.387Z,73.60
2018-11-02T16:47:42.163Z,81.63
2018-11-02T16:50:12.327Z,78.77
2018-11-02T16:52:41.829Z,76.57
2018-11-02T16:55:11.019Z,59.67
2018-11-02T16:57:40.987Z,70.17
2018-11-02T17:00:13.411Z,67.40
2018-11-02T17:02:42.736Z,64.10
2018-11-02T17:05:11.907Z,62.27
2018-11-02T17:07:41.991Z,66.27
2018-11-02T17:10:12.583Z,59.17
2018-11-02T17:12:42.436Z,54.83
2018-11-02T17:15:12.534Z,64.03
2018-11-02T17:17:41.693Z,51.73
2018-11-02T17:20:13.966Z,60.33
2018-11-02T17:22:43.273Z,59.43
2018-11-02T17:25:12.874Z,53.63
2018-11-02T17:27:42.013Z,50.33
2018-11-02T17:30:13.603Z,72.70
2018-11-02T17:32:42.697Z,56.60
2018-11-02T17:35:12.080Z,59.63
2018-11-02T17:37:41.220Z,62.00
2018-11-02T17:40:11.942Z,60.90
2018-11-02T17:42:41.670Z,63.57
2018-11-02T17:45:10.846Z,67.73
2018-11-02T17:47:41.050Z,63.13
2018-11-02T17:50:11.481Z,62.87
2018-11-02T17:52:40.819Z,57.60
2018-11-02T17:55:10.000Z,58.57
2018-11-02T17:57:39.162Z,55.63
2018-11-02T18:00:10.151Z,57.80
2018-11-02T18:02:39.368Z,55.83
2018-11-02T18:05:09.060Z,63.43
2018-11-02T18:07:38.468Z,69.00
2018-11-02T18:10:09.620Z,77.50
2018-11-02T18:12:39.627Z,59.83
2018-11-02T18:15:10.753Z,68.90
2018-11-02T18:17:40.058Z,64.63
2018-11-02T18:20:11.523Z,77.60
2018-11-02T18:22:40.677Z,59.43
2018-11-02T18:25:10.420Z,60.70
2018-11-02T18:27:40.057Z,81.83
2018-11-02T18:30:10.334Z,72.03
2018-11-02T18:32:39.647Z,67.20
2018-11-02T18:35:09.436Z,63.07
2018-11-02T18:37:38.539Z,67.93
2018-11-02T18:40:09.061Z,58.70
2018-11-02T18:42:38.404Z,66.17
2018-11-02T18:45:09.820Z,54.27
2018-11-02T18:47:46.240Z,64.87
2018-11-02T18:50:17.648Z,60.23
2018-11-02T18:52:47.474Z,63.87
2018-11-02T18:55:16.971Z,64.63
2018-11-02T18:57:46.743Z,64.57
2018-11-02T19:00:15.974Z,62.67
2018-11-02T19:02:45.098Z,61.60
2018-11-02T19:05:16.505Z,65.87
2018-11-02T19:07:45.775Z,66.43
2018-11-02T19:10:14.935Z,53.80
2018-11-02T19:12:44.806Z,66.60
2018-11-02T19:15:15.260Z,74.23
2018-11-02T19:17:44.542Z,63.27
2018-11-02T19:20:13.959Z,57.73
2018-11-02T19:22:43.288Z,68.43
2018-11-02T19:25:13.609Z,61.77
2018-11-02T19:27:43.476Z,65.83
2018-11-02T19:30:13.512Z,67.07
2018-11-02T19:32:43.329Z,63.77
2018-11-02T19:35:13.603Z,67.80
2018-11-02T19:37:43.223Z,61.17
2018-11-02T19:40:13.797Z,67.97
2018-11-02T19:42:43.319Z,71.80
2018-11-02T19:45:12.847Z,69.43
2018-11-02T19:47:47.198Z,72.07
2018-11-02T19:50:17.545Z,67.23
2018-11-02T19:52:46.862Z,60.93
2018-11-02T19:55:16.204Z,62.33
2018-11-02T19:57:45.784Z,62.10
2018-11-02T20:00:16.092Z,64.43
2018-11-02T20:02:45.261Z,63.37
2018-11-02T20:05:16.232Z,71.10
2018-11-02T20:07:45.461Z,69.53
2018-11-02T20:10:15.519Z,62.87
2018-11-02T20:12:45.478Z,69.43
2018-11-02T20:15:15.338Z,64.77
2018-11-02T20:17:44.512Z,69.17
2018-11-02T20:20:14.888Z,63.47
2018-11-02T20:22:44.034Z,54.10
2018-11-02T20:25:16.562Z,58.83
2018-11-02T20:27:46.118Z,61.97
2018-11-02T20:30:18.751Z,54.83
2018-11-02T20:32:48.003Z,54.23
2018-11-02T20:35:17.248Z,64.20
2018-11-02T20:37:46.403Z,77.83
2018-11-02T20:40:17.269Z,71.53
2018-11-02T20:42:46.803Z,76.40
2018-11-02T20:45:16.499Z,75.63
2018-11-02T20:47:51.037Z,67.77
2018-11-02T20:50:20.145Z,79.17
2018-11-02T20:52:49.781Z,71.13
2018-11-02T20:55:19.125Z,69.17
2018-11-02T21:00:24.691Z,68.53
2018-11-02T21:02:54.073Z,66.67
2018-11-02T21:05:23.696Z,62.27
2018-11-02T21:07:54.169Z,71.23
2018-11-02T21:10:23.846Z,70.83
2018-11-02T21:12:53.009Z,77.57
2018-11-02T21:15:23.602Z,66.80
2018-11-02T21:17:53.083Z,64.43
2018-11-02T21:20:24.136Z,61.80
2018-11-02T21:22:53.322Z,66.97
2018-11-02T21:25:22.501Z,65.10
2018-11-02T21:27:51.620Z,77.67
2018-11-02T21:30:23.178Z,60.87
2018-11-02T21:32:53.300Z,56.83
2018-11-02T21:35:23.296Z,63.30
2018-11-02T21:37:52.801Z,56.63
2018-11-02T21:40:23.455Z,70.30
2018-11-02T21:42:52.580Z,69.50
2018-11-02T21:45:22.949Z,71.27
2018-11-02T21:47:52.818Z,70.47
2018-11-02T21:50:22.072Z,67.93
2018-11-02T21:52:51.227Z,60.40
2018-11-02T21:55:20.412Z,76.83
2018-11-02T21:57:49.608Z,66.23
2018-11-02T22:00:21.078Z,73.97
2018-11-02T22:02:50.616Z,72.40
2018-11-02T22:05:20.144Z,73.80
2018-11-02T22:07:50.156Z,78.83
2018-11-02T22:10:19.462Z,81.27
2018-11-02T22:12:48.642Z,76.97
2018-11-02T22:15:17.753Z,71.73
2018-11-02T22:17:46.825Z,67.40
2018-11-02T22:20:16.362Z,73.67
2018-11-02T22:22:45.675Z,72.87
2018-11-02T22:25:15.661Z,67.57
2018-11-02T22:27:44.742Z,75.53
2018-11-02T22:30:15.657Z,70.47
2018-11-02T22:32:44.749Z,66.07
2018-11-02T22:35:14.745Z,71.13
2018-11-02T22:37:44.523Z,66.27
2018-11-02T22:40:14.651Z,69.83
2018-11-02T22:42:44.385Z,67.77
2018-11-02T22:45:14.505Z,76.40
2018-11-02T22:47:49.113Z,69.10
2018-11-02T22:50:18.266Z,72.97
2018-11-02T22:52:47.345Z,67.37
2018-11-02T22:55:16.552Z,63.57
2018-11-02T22:57:45.780Z,69.67
2018-11-02T23:00:16.862Z,76.80
2018-11-02T23:02:46.838Z,75.33
2018-11-02T23:05:16.015Z,70.13
2018-11-02T23:07:45.625Z,66.73
2018-11-02T23:10:14.787Z,70.57
2018-11-02T23:12:43.863Z,64.43
2018-11-02T23:15:15.029Z,73.93
2018-11-02T23:17:44.605Z,65.70
2018-11-02T23:20:15.271Z,71.27
2018-11-02T23:22:44.368Z,70.43
2018-11-02T23:25:13.793Z,65.80
2018-11-02T23:27:44.137Z,66.97
2018-11-02T23:30:13.432Z,64.23
2018-11-02T23:32:42.599Z,69.63
2018-11-02T23:35:11.714Z,64.93
2018-11-02T23:37:40.854Z,68.47
2018-11-02T23:40:11.059Z,64.30
2018-11-02T23:42:40.348Z,68.50
2018-11-02T23:45:10.572Z,71.03
2018-11-02T23:47:41.263Z,71.33
2018-11-02T23:50:10.726Z,72.07
2018-11-02T23:52:39.917Z,68.97
2018-11-02T23:55:09.344Z,65.63
2018-11-02T23:57:38.661Z,67.57
